Bhera Weather



Bhera's Current Weather

Temprature 10.46o clear sky

clear sky

Rain: 0 %

Min Temprature10.46o
Max Temprature10.46o
Humidity90
Wind Speed2.92 m/h
Sun Rise07:01:40
Sun Set17:04:00
Current Time: 14-Dec-2019 08:11:35
Lat/Lon: 32.48, 72.91




Bhera's Geo Location



Bhera's Weather Forecast

Time Overall Temp Min Temp Max Temp Humidity Wind Speed Rain
14-Dec-2019 (Sat)
11:00:00 clear sky 15.560 15.560 15.560 67 3.08 m/h 0 %
14:00:00 light rain 17.740 17.740 17.740 53 2.64 m/h 150 %
17:00:00 light rain 14.730 14.730 14.730 64 0.94 m/h 144 %
20:00:00 light rain 12.960 12.960 12.960 72 1.65 m/h 88 %
23:00:00 light rain 11.740 11.740 11.740 78 1.07 m/h 13 %
15-Dec-2019 (Sun)
02:00:00 clear sky 11.210 11.210 11.210 77 0.85 m/h 0 %
05:00:00 clear sky 10.730 10.730 10.730 76 1.6 m/h 0 %
08:00:00 clear sky 11.460 11.460 11.460 74 1.46 m/h 0 %
11:00:00 clear sky 16.980 16.980 16.980 50 2.5 m/h 0 %
14:00:00 clear sky 18.730 18.730 18.730 41 3.12 m/h 0 %
17:00:00 clear sky 15.300 15.300 15.300 52 1.93 m/h 0 %
20:00:00 clear sky 13.210 13.210 13.210 58 2.33 m/h 0 %
23:00:00 clear sky 12.130 12.130 12.130 61 2.23 m/h 0 %
16-Dec-2019 (Mon)
02:00:00 clear sky 11.270 11.270 11.270 61 2.28 m/h 0 %
05:00:00 clear sky 10.470 10.470 10.470 59 2.01 m/h 0 %
08:00:00 clear sky 11.010 11.010 11.010 58 1.38 m/h 0 %
11:00:00 clear sky 17.400 17.400 17.400 35 1.97 m/h 0 %
14:00:00 clear sky 19.400 19.400 19.400 27 3.36 m/h 0 %
17:00:00 clear sky 15.270 15.270 15.270 34 2.5 m/h 0 %
20:00:00 clear sky 12.630 12.630 12.630 37 2.55 m/h 0 %
23:00:00 clear sky 11.840 11.840 11.840 33 2.45 m/h 0 %
17-Dec-2019 (Tue)
02:00:00 clear sky 10.710 10.710 10.710 32 1.99 m/h 0 %
05:00:00 clear sky 9.480 9.480 9.480 38 0.89 m/h 0 %
08:00:00 clear sky 10.280 10.280 10.280 40 0.8 m/h 0 %
11:00:00 clear sky 17.340 17.340 17.340 19 2.62 m/h 0 %
14:00:00 clear sky 19.560 19.560 19.560 17 3.14 m/h 0 %
17:00:00 clear sky 14.700 14.700 14.700 25 2.19 m/h 0 %
20:00:00 broken clouds 12.410 12.410 12.410 26 2.01 m/h 0 %
23:00:00 broken clouds 11.730 11.730 11.730 24 2.2 m/h 0 %
18-Dec-2019 (Wed)
02:00:00 overcast clouds 10.980 10.980 10.980 26 2.6 m/h 0 %
05:00:00 overcast clouds 9.930 9.930 9.930 30 1.67 m/h 0 %
08:00:00 overcast clouds 11.100 11.100 11.100 32 1.01 m/h 0 %
11:00:00 overcast clouds 17.560 17.560 17.560 19 1.48 m/h 0 %
14:00:00 overcast clouds 19.730 19.730 19.730 15 1.99 m/h 0 %
17:00:00 overcast clouds 15.530 15.530 15.530 22 1.38 m/h 0 %
20:00:00 broken clouds 12.970 12.970 12.970 24 2.62 m/h 0 %
23:00:00 broken clouds 11.390 11.390 11.390 25 0.98 m/h 0 %
19-Dec-2019 (Thu)
02:00:00 scattered clouds 10.880 10.880 10.880 24 1.66 m/h 0 %
05:00:00 scattered clouds 10.590 10.590 10.590 23 1.28 m/h 0 %
08:00:00 overcast clouds 11.090 11.090 11.090 27 0.42 m/h 0 %


Bhera's Tourist Spots

Historical Places in Bhera

Famous Cities (61)